Glenrothes, United Kingdom

8:14 PM BST on August 31, 2015 (GMT +0100)
Well Road | | Change Station
CLOSE
Current Station
Personal Weather Station
Location: Glenrothes, FIFE
Elevation: 308 ft
Nearby Weather Stations

Elev 308 ft 56.19 °N, 3.15 °W | Updated 14 minutes ago

Partly Cloudy
Partly Cloudy
54.5 °F
Feels Like 54.5 °F
N
0.2
Wind Variable Wind from NW
Gusts 0.7 mph

Today
High -- | Low -- °F
--% Chance of Precip.
Yesterday
High -- | Low -- °F
Precip. -- in
6:13 AM 8:11 PM
Waning Gibbous, 94% visible
Pressure 30.06 in
Visibility 6.2 miles
Clouds Few 3000 ft
Dew Point 52 °F
Humidity 93%
Rainfall 0.25 in
Snow Depth Not available.
UV 0 out of 12
Pollen Not available.
Air Quality Not available.
Flu Activity Not available.
METAR EGPH 311850Z 00000KT 9999 FEW030 13/11 Q1018
Pressure 30.06 in
Visibility 6.2 miles
Clouds Few 3000 ft
Dew Point 52 °F
Humidity 93%
Rainfall 0.25 in
Snow Depth Not available.
UV 0 out of 12
Pollen Not available.
Air Quality Not available.
Flu Activity Not available.
METAR EGPH 311850Z 00000KT 9999 FEW030 13/11 Q1018

10-Day Weather Forecast

×

Almanac

Astronomy

Aug. 31, 2015 Rise Set
Actual Time
Civil Twilight
Nautical Twilight
Astronomical Twilight
Moon
Length of Visible Light
Length of Day
Tomorrow will be .
, % of the Moon is Illuminated

Today's Extremes

Country Highs Country Lows

Community

WunderPhotos

Upload Photos

1,851,340 photos uploaded!

WunderBlogs® & News

Nearby

Air Quality

  Air Quality AQ Index Pollutant
Not available.

Snow Depth

Station Depth Elevation

Earthquake Activity

City Distance Mag. Time & Date
Minimum magnitude displayed is 2.5.

Coastal Water Temperatures

Place Temperature

Stations

Nearby Weather Stations

Station Location Temp. Windchill Dew Point Humidity Wind Precip. Elev Updated Type